sensor_id;sensor_type;location;lat;lon;timestamp;pressure;altitude;pressure_sealevel;temperature;humidity
6514;BME280;3290;47.716;9.070;2023-02-17T00:00:31;98007.94;;;7.01;100.00
6514;BME280;3290;47.716;9.070;2023-02-17T00:02:57;98006.81;;;6.96;100.00
6514;BME280;3290;47.716;9.070;2023-02-17T00:05:23;98002.75;;;7.09;100.00
6514;BME280;3290;47.716;9.070;2023-02-17T00:07:49;97996.41;;;7.04;100.00
6514;BME280;3290;47.716;9.070;2023-02-17T00:10:15;98000.50;;;6.98;100.00
6514;BME280;3290;47.716;9.070;2023-02-17T00:12:40;97999.97;;;7.03;100.00
6514;BME280;3290;47.716;9.070;2023-02-17T00:15:06;98004.97;;;7.28;100.00
6514;BME280;3290;47.716;9.070;2023-02-17T00:17:31;98003.66;;;7.32;100.00
6514;BME280;3290;47.716;9.070;2023-02-17T00:19:57;98001.38;;;7.29;100.00
6514;BME280;3290;47.716;9.070;2023-02-17T00:22:22;98001.09;;;7.16;100.00
6514;BME280;3290;47.716;9.070;2023-02-17T00:24:48;98007.75;;;7.26;100.00
6514;BME280;3290;47.716;9.070;2023-02-17T00:27:13;98001.84;;;7.32;100.00
6514;BME280;3290;47.716;9.070;2023-02-17T00:29:38;98001.59;;;7.12;100.00
6514;BME280;3290;47.716;9.070;2023-02-17T00:32:04;98004.50;;;7.17;100.00
6514;BME280;3290;47.716;9.070;2023-02-17T00:34:29;98004.50;;;7.17;100.00
6514;BME280;3290;47.716;9.070;2023-02-17T00:36:55;98005.94;;;7.19;100.00
6514;BME280;3290;47.716;9.070;2023-02-17T00:39:21;98014.28;;;7.15;100.00
6514;BME280;3290;47.716;9.070;2023-02-17T00:41:46;98009.56;;;7.18;100.00
6514;BME280;3290;47.716;9.070;2023-02-17T00:44:16;98004.38;;;7.02;100.00
6514;BME280;3290;47.716;9.070;2023-02-17T00:46:43;98002.13;;;6.91;100.00
6514;BME280;3290;47.716;9.070;2023-02-17T00:49:21;98010.59;;;6.78;100.00
6514;BME280;3290;47.716;9.070;2023-02-17T00:51:47;98013.84;;;6.95;100.00
6514;BME280;3290;47.716;9.070;2023-02-17T00:54:13;98010.72;;;7.00;100.00
6514;BME280;3290;47.716;9.070;2023-02-17T00:56:39;98017.22;;;7.19;100.00
6514;BME280;3290;47.716;9.070;2023-02-17T00:59:05;98009.34;;;7.27;100.00
6514;BME280;3290;47.716;9.070;2023-02-17T01:01:31;98019.25;;;7.40;100.00
6514;BME280;3290;47.716;9.070;2023-02-17T01:03:56;98017.69;;;7.23;100.00
6514;BME280;3290;47.716;9.070;2023-02-17T01:06:24;98017.66;;;7.39;100.00
6514;BME280;3290;47.716;9.070;2023-02-17T01:08:51;98020.19;;;7.55;100.00
6514;BME280;3290;47.716;9.070;2023-02-17T01:11:27;98014.03;;;7.48;100.00
6514;BME280;3290;47.716;9.070;2023-02-17T01:13:53;98020.41;;;7.37;100.00
6514;BME280;3290;47.716;9.070;2023-02-17T01:18:47;98016.88;;;7.68;98.69
6514;BME280;3290;47.716;9.070;2023-02-17T01:21:19;98012.25;;;7.78;98.13
6514;BME280;3290;47.716;9.070;2023-02-17T01:23:48;98009.09;;;7.91;97.24
6514;BME280;3290;47.716;9.070;2023-02-17T01:26:18;98014.91;;;8.00;97.78
6514;BME280;3290;47.716;9.070;2023-02-17T01:28:45;98016.50;;;7.79;98.85
6514;BME280;3290;47.716;9.070;2023-02-17T01:31:11;98020.22;;;7.85;98.51
6514;BME280;3290;47.716;9.070;2023-02-17T01:33:38;98022.28;;;7.89;97.22
6514;BME280;3290;47.716;9.070;2023-02-17T01:36:05;98014.31;;;7.91;96.72
6514;BME280;3290;47.716;9.070;2023-02-17T01:38:31;98011.94;;;7.73;97.69
6514;BME280;3290;47.716;9.070;2023-02-17T01:40:57;98001.22;;;7.98;95.79
6514;BME280;3290;47.716;9.070;2023-02-17T01:43:23;97996.81;;;7.99;95.43
6514;BME280;3290;47.716;9.070;2023-02-17T01:45:51;97988.13;;;8.06;94.17
6514;BME280;3290;47.716;9.070;2023-02-17T01:48:29;97986.81;;;8.33;93.52
6514;BME280;3290;47.716;9.070;2023-02-17T01:51:25;97992.97;;;8.39;92.88
6514;BME280;3290;47.716;9.070;2023-02-17T01:54:05;97996.63;;;8.31;93.32
6514;BME280;3290;47.716;9.070;2023-02-17T01:56:34;97996.34;;;8.26;94.51
6514;BME280;3290;47.716;9.070;2023-02-17T01:59:04;97983.88;;;8.36;93.37
6514;BME280;3290;47.716;9.070;2023-02-17T02:01:32;97986.44;;;8.21;92.45
6514;BME280;3290;47.716;9.070;2023-02-17T02:03:59;97979.28;;;8.38;92.89
6514;BME280;3290;47.716;9.070;2023-02-17T02:06:27;97978.53;;;8.51;91.66
6514;BME280;3290;47.716;9.070;2023-02-17T02:08:59;97974.69;;;8.62;90.43
6514;BME280;3290;47.716;9.070;2023-02-17T02:11:26;97975.31;;;8.64;89.45
6514;BME280;3290;47.716;9.070;2023-02-17T02:13:51;97967.22;;;8.73;87.22
6514;BME280;3290;47.716;9.070;2023-02-17T02:19:11;97960.97;;;8.82;87.09
6514;BME280;3290;47.716;9.070;2023-02-17T02:27:30;97965.38;;;8.96;85.64
6514;BME280;3290;47.716;9.070;2023-02-17T02:35:42;97960.97;;;9.11;83.90
6514;BME280;3290;47.716;9.070;2023-02-17T02:38:36;97947.91;;;9.11;83.63
6514;BME280;3290;47.716;9.070;2023-02-17T02:41:08;97948.97;;;9.16;82.39
6514;BME280;3290;47.716;9.070;2023-02-17T02:43:36;97950.69;;;9.23;82.37
6514;BME280;3290;47.716;9.070;2023-02-17T02:46:01;97958.09;;;9.20;83.24
6514;BME280;3290;47.716;9.070;2023-02-17T02:48:27;97946.66;;;9.21;81.87
6514;BME280;3290;47.716;9.070;2023-02-17T02:56:12;97954.50;;;9.07;84.34
6514;BME280;3290;47.716;9.070;2023-02-17T03:01:58;97949.50;;;8.83;84.65
6514;BME280;3290;47.716;9.070;2023-02-17T03:04:38;97953.94;;;8.82;85.82
6514;BME280;3290;47.716;9.070;2023-02-17T03:07:30;97953.94;;;8.97;82.93
6514;BME280;3290;47.716;9.070;2023-02-17T03:09:59;97950.34;;;8.98;82.73
6514;BME280;3290;47.716;9.070;2023-02-17T03:12:25;97948.53;;;9.13;82.55
6514;BME280;3290;47.716;9.070;2023-02-17T03:15:01;97944.00;;;8.92;84.04
6514;BME280;3290;47.716;9.070;2023-02-17T03:17:30;97948.34;;;9.00;82.46
6514;BME280;3290;47.716;9.070;2023-02-17T03:19:56;97947.63;;;9.06;82.80
6514;BME280;3290;47.716;9.070;2023-02-17T03:22:30;97948.81;;;8.89;83.45
6514;BME280;3290;47.716;9.070;2023-02-17T03:24:58;97948.97;;;9.16;82.67
6514;BME280;3290;47.716;9.070;2023-02-17T03:27:25;97943.41;;;9.19;80.68
6514;BME280;3290;47.716;9.070;2023-02-17T03:29:51;97954.31;;;9.37;77.72
6514;BME280;3290;47.716;9.070;2023-02-17T03:32:17;97951.50;;;9.38;78.54
6514;BME280;3290;47.716;9.070;2023-02-17T03:34:42;97960.34;;;9.37;76.68
6514;BME280;3290;47.716;9.070;2023-02-17T03:37:07;97959.88;;;9.48;75.65
6514;BME280;3290;47.716;9.070;2023-02-17T03:39:33;97949.63;;;9.47;75.16
6514;BME280;3290;47.716;9.070;2023-02-17T03:41:58;97953.09;;;9.54;75.53
6514;BME280;3290;47.716;9.070;2023-02-17T03:44:23;97947.88;;;9.54;76.90
6514;BME280;3290;47.716;9.070;2023-02-17T03:46:49;97952.94;;;9.41;77.48
6514;BME280;3290;47.716;9.070;2023-02-17T03:49:14;97946.19;;;9.32;78.92
6514;BME280;3290;47.716;9.070;2023-02-17T03:51:39;97947.25;;;9.37;79.27
6514;BME280;3290;47.716;9.070;2023-02-17T03:54:05;97951.31;;;9.54;78.10
6514;BME280;3290;47.716;9.070;2023-02-17T03:56:30;97941.81;;;9.53;78.06
6514;BME280;3290;47.716;9.070;2023-02-17T03:58:56;97948.16;;;9.44;77.92
6514;BME280;3290;47.716;9.070;2023-02-17T04:01:21;97949.63;;;9.47;76.80
6514;BME280;3290;47.716;9.070;2023-02-17T04:03:47;97959.03;;;9.62;74.64
6514;BME280;3290;47.716;9.070;2023-02-17T04:06:12;97964.44;;;9.60;73.97
6514;BME280;3290;47.716;9.070;2023-02-17T04:08:38;97960.75;;;9.55;72.44
6514;BME280;3290;47.716;9.070;2023-02-17T04:11:05;97960.78;;;9.90;69.15
6514;BME280;3290;47.716;9.070;2023-02-17T04:13:32;97948.19;;;10.14;68.39
6514;BME280;3290;47.716;9.070;2023-02-17T04:15:58;97960.34;;;10.01;69.60
6514;BME280;3290;47.716;9.070;2023-02-17T04:18:25;97960.28;;;9.95;69.75
6514;BME280;3290;47.716;9.070;2023-02-17T04:20:52;97956.47;;;9.97;70.10
6514;BME280;3290;47.716;9.070;2023-02-17T04:23:17;97953.31;;;10.01;70.05
6514;BME280;3290;47.716;9.070;2023-02-17T04:25:43;97955.78;;;10.09;69.57
6514;BME280;3290;47.716;9.070;2023-02-17T04:28:10;97959.00;;;9.91;70.41
6514;BME280;3290;47.716;9.070;2023-02-17T04:30:35;97957.91;;;9.99;68.31
6514;BME280;3290;47.716;9.070;2023-02-17T04:33:01;97956.81;;;10.08;69.33
6514;BME280;3290;47.716;9.070;2023-02-17T04:35:26;97952.97;;;10.11;68.16
6514;BME280;3290;47.716;9.070;2023-02-17T04:37:52;97948.44;;;10.19;68.33
6514;BME280;3290;47.716;9.070;2023-02-17T04:40:18;97959.47;;;10.15;66.79
6514;BME280;3290;47.716;9.070;2023-02-17T04:42:44;97950.31;;;10.25;66.31
6514;BME280;3290;47.716;9.070;2023-02-17T04:45:10;97947.56;;;10.54;66.54
6514;BME280;3290;47.716;9.070;2023-02-17T04:47:36;97947.94;;;10.30;65.75
6514;BME280;3290;47.716;9.070;2023-02-17T04:50:02;97944.78;;;10.35;66.37
6514;BME280;3290;47.716;9.070;2023-02-17T04:52:27;97940.25;;;10.29;65.49
6514;BME280;3290;47.716;9.070;2023-02-17T04:54:53;97942.19;;;10.41;65.62
6514;BME280;3290;47.716;9.070;2023-02-17T04:57:18;97932.13;;;10.38;65.19
6514;BME280;3290;47.716;9.070;2023-02-17T04:59:43;97934.66;;;10.32;65.70
6514;BME280;3290;47.716;9.070;2023-02-17T05:02:09;97926.78;;;10.52;66.21
6514;BME280;3290;47.716;9.070;2023-02-17T05:04:34;97924.06;;;10.39;65.59
6514;BME280;3290;47.716;9.070;2023-02-17T05:07:00;97921.44;;;10.39;67.32
6514;BME280;3290;47.716;9.070;2023-02-17T05:09:25;97914.47;;;10.26;67.53
6514;BME280;3290;47.716;9.070;2023-02-17T05:11:50;97921.50;;;10.25;68.09
6514;BME280;3290;47.716;9.070;2023-02-17T05:14:16;97919.13;;;10.09;68.72
6514;BME280;3290;47.716;9.070;2023-02-17T05:16:41;97932.44;;;10.08;68.19
6514;BME280;3290;47.716;9.070;2023-02-17T05:19:07;97930.38;;;10.24;67.72
6514;BME280;3290;47.716;9.070;2023-02-17T05:21:32;97929.06;;;10.35;69.20
6514;BME280;3290;47.716;9.070;2023-02-17T05:23:58;97927.00;;;10.30;69.56
6514;BME280;3290;47.716;9.070;2023-02-17T05:26:23;97928.03;;;10.36;68.83
6514;BME280;3290;47.716;9.070;2023-02-17T05:28:49;97934.22;;;10.28;69.97
6514;BME280;3290;47.716;9.070;2023-02-17T05:31:14;97941.56;;;10.39;68.60
6514;BME280;3290;47.716;9.070;2023-02-17T05:33:40;97938.94;;;10.60;66.87
6514;BME280;3290;47.716;9.070;2023-02-17T05:36:07;97922.13;;;10.75;65.79
6514;BME280;3290;47.716;9.070;2023-02-17T05:38:33;97932.97;;;10.72;65.80
6514;BME280;3290;47.716;9.070;2023-02-17T05:40:59;97931.31;;;10.65;65.16
6514;BME280;3290;47.716;9.070;2023-02-17T05:43:24;97926.13;;;10.71;63.18
6514;BME280;3290;47.716;9.070;2023-02-17T05:45:49;97926.41;;;10.82;63.54
6514;BME280;3290;47.716;9.070;2023-02-17T05:48:15;97938.13;;;10.86;63.67
6514;BME280;3290;47.716;9.070;2023-02-17T05:50:40;97942.66;;;10.99;62.60
6514;BME280;3290;47.716;9.070;2023-02-17T05:53:05;97938.41;;;10.98;62.83
6514;BME280;3290;47.716;9.070;2023-02-17T05:55:31;97935.50;;;10.86;63.16
6514;BME280;3290;47.716;9.070;2023-02-17T05:57:56;97934.28;;;10.82;63.52
6514;BME280;3290;47.716;9.070;2023-02-17T06:00:22;97936.03;;;10.76;64.45
6514;BME280;3290;47.716;9.070;2023-02-17T06:02:47;97933.13;;;10.91;66.08
6514;BME280;3290;47.716;9.070;2023-02-17T06:05:12;97935.44;;;11.07;64.22
6514;BME280;3290;47.716;9.070;2023-02-17T06:07:38;97928.59;;;11.06;62.67
6514;BME280;3290;47.716;9.070;2023-02-17T06:10:04;97933.56;;;10.95;63.88
6514;BME280;3290;47.716;9.070;2023-02-17T06:12:29;97941.47;;;11.01;62.77
6514;BME280;3290;47.716;9.070;2023-02-17T06:14:55;97940.44;;;11.02;62.10
6514;BME280;3290;47.716;9.070;2023-02-17T06:17:20;97939.22;;;10.98;61.49
6514;BME280;3290;47.716;9.070;2023-02-17T06:19:46;97938.69;;;11.09;61.03
6514;BME280;3290;47.716;9.070;2023-02-17T06:22:11;97931.66;;;11.16;59.72
6514;BME280;3290;47.716;9.070;2023-02-17T06:24:36;97942.41;;;11.21;59.30
6514;BME280;3290;47.716;9.070;2023-02-17T06:27:02;97950.25;;;11.21;60.37
6514;BME280;3290;47.716;9.070;2023-02-17T06:29:27;97948.81;;;11.46;61.76
6514;BME280;3290;47.716;9.070;2023-02-17T06:31:53;97942.59;;;11.53;61.97
6514;BME280;3290;47.716;9.070;2023-02-17T06:34:18;97954.53;;;10.95;64.10
6514;BME280;3290;47.716;9.070;2023-02-17T06:36:44;97956.91;;;11.17;64.60
6514;BME280;3290;47.716;9.070;2023-02-17T06:39:10;97961.00;;;11.26;65.70
6514;BME280;3290;47.716;9.070;2023-02-17T06:41:35;97958.94;;;11.21;66.97
6514;BME280;3290;47.716;9.070;2023-02-17T06:44:00;97960.19;;;11.25;68.30
6514;BME280;3290;47.716;9.070;2023-02-17T06:46:26;97968.56;;;11.15;69.40
6514;BME280;3290;47.716;9.070;2023-02-17T06:48:51;97964.75;;;10.83;69.50
6514;BME280;3290;47.716;9.070;2023-02-17T06:51:16;97969.69;;;10.99;70.02
6514;BME280;3290;47.716;9.070;2023-02-17T06:53:42;97965.59;;;10.90;68.38
6514;BME280;3290;47.716;9.070;2023-02-17T06:56:07;97970.44;;;10.93;70.04
6514;BME280;3290;47.716;9.070;2023-02-17T06:58:33;97973.50;;;10.49;75.13
6514;BME280;3290;47.716;9.070;2023-02-17T07:01:00;97982.50;;;10.19;75.79
6514;BME280;3290;47.716;9.070;2023-02-17T07:03:26;97976.88;;;10.22;76.75
6514;BME280;3290;47.716;9.070;2023-02-17T07:05:56;97982.16;;;10.29;73.93
6514;BME280;3290;47.716;9.070;2023-02-17T07:08:22;97977.69;;;10.23;72.71
6514;BME280;3290;47.716;9.070;2023-02-17T07:10:48;97972.53;;;10.29;68.73
6514;BME280;3290;47.716;9.070;2023-02-17T07:13:13;97976.06;;;10.63;66.04
6514;BME280;3290;47.716;9.070;2023-02-17T07:15:39;97976.50;;;10.67;65.65
6514;BME280;3290;47.716;9.070;2023-02-17T07:18:04;97971.34;;;10.79;65.22
6514;BME280;3290;47.716;9.070;2023-02-17T07:20:29;97973.97;;;10.79;65.12
6514;BME280;3290;47.716;9.070;2023-02-17T07:22:56;97977.97;;;10.76;64.83
6514;BME280;3290;47.716;9.070;2023-02-17T07:25:22;97978.59;;;10.77;64.55
6514;BME280;3290;47.716;9.070;2023-02-17T07:27:47;97972.53;;;10.77;64.29
6514;BME280;3290;47.716;9.070;2023-02-17T07:30:13;97976.09;;;10.90;62.96
6514;BME280;3290;47.716;9.070;2023-02-17T07:32:38;97971.66;;;10.91;63.00
6514;BME280;3290;47.716;9.070;2023-02-17T07:35:04;97975.91;;;10.92;62.01
6514;BME280;3290;47.716;9.070;2023-02-17T07:37:30;97976.88;;;11.18;61.42
6514;BME280;3290;47.716;9.070;2023-02-17T07:39:55;97978.25;;;11.14;61.68
6514;BME280;3290;47.716;9.070;2023-02-17T07:42:21;97988.50;;;11.09;61.45
6514;BME280;3290;47.716;9.070;2023-02-17T07:44:47;97988.94;;;11.13;62.18
6514;BME280;3290;47.716;9.070;2023-02-17T07:47:12;97990.16;;;11.10;62.70
6514;BME280;3290;47.716;9.070;2023-02-17T07:49:38;97986.69;;;11.37;62.05
6514;BME280;3290;47.716;9.070;2023-02-17T07:52:03;97987.06;;;11.34;61.95
6514;BME280;3290;47.716;9.070;2023-02-17T07:54:29;97993.78;;;11.43;61.02
6514;BME280;3290;47.716;9.070;2023-02-17T07:56:54;97998.75;;;11.31;60.53
6514;BME280;3290;47.716;9.070;2023-02-17T07:59:19;98002.56;;;11.50;59.17
6514;BME280;3290;47.716;9.070;2023-02-17T08:01:45;98002.59;;;11.62;59.20
6514;BME280;3290;47.716;9.070;2023-02-17T08:04:10;98017.63;;;11.75;58.45
6514;BME280;3290;47.716;9.070;2023-02-17T08:06:37;98014.44;;;11.86;58.82
6514;BME280;3290;47.716;9.070;2023-02-17T08:09:03;98010.06;;;11.59;58.28
6514;BME280;3290;47.716;9.070;2023-02-17T08:11:48;98015.03;;;11.48;59.07
6514;BME280;3290;47.716;9.070;2023-02-17T08:14:48;98022.91;;;11.88;57.57
6514;BME280;3290;47.716;9.070;2023-02-17T08:17:14;98017.50;;;11.56;58.40
6514;BME280;3290;47.716;9.070;2023-02-17T08:19:39;98027.00;;;11.90;57.22
6514;BME280;3290;47.716;9.070;2023-02-17T08:22:05;98035.81;;;11.83;58.24
6514;BME280;3290;47.716;9.070;2023-02-17T08:24:30;98035.44;;;11.86;57.55
6514;BME280;3290;47.716;9.070;2023-02-17T08:26:55;98025.63;;;12.07;58.94
6514;BME280;3290;47.716;9.070;2023-02-17T08:29:21;98029.88;;;12.08;58.04
6514;BME280;3290;47.716;9.070;2023-02-17T08:31:51;98030.75;;;12.28;57.12
6514;BME280;3290;47.716;9.070;2023-02-17T08:34:17;98037.63;;;12.29;56.40
6514;BME280;3290;47.716;9.070;2023-02-17T08:36:42;98048.66;;;12.05;57.15
6514;BME280;3290;47.716;9.070;2023-02-17T08:39:14;98044.28;;;12.25;57.17
6514;BME280;3290;47.716;9.070;2023-02-17T08:41:40;98040.88;;;12.31;56.68
6514;BME280;3290;47.716;9.070;2023-02-17T08:44:09;98037.19;;;12.19;56.85
6514;BME280;3290;47.716;9.070;2023-02-17T08:46:35;98039.25;;;12.30;57.96
6514;BME280;3290;47.716;9.070;2023-02-17T08:49:02;98040.91;;;12.56;57.43
6514;BME280;3290;47.716;9.070;2023-02-17T08:51:28;98049.69;;;12.82;56.49
6514;BME280;3290;47.716;9.070;2023-02-17T08:53:55;98042.84;;;13.20;54.77
6514;BME280;3290;47.716;9.070;2023-02-17T08:56:25;98051.13;;;12.85;54.56
6514;BME280;3290;47.716;9.070;2023-02-17T08:58:51;98050.22;;;12.52;55.96
6514;BME280;3290;47.716;9.070;2023-02-17T09:01:16;98046.19;;;12.56;56.03
6514;BME280;3290;47.716;9.070;2023-02-17T09:03:46;98041.94;;;12.55;55.29
6514;BME280;3290;47.716;9.070;2023-02-17T09:06:11;98050.44;;;12.57;55.30
6514;BME280;3290;47.716;9.070;2023-02-17T09:08:38;98048.53;;;12.26;55.16
6514;BME280;3290;47.716;9.070;2023-02-17T09:11:05;98053.41;;;12.29;55.48
6514;BME280;3290;47.716;9.070;2023-02-17T09:13:31;98063.56;;;12.44;55.82
6514;BME280;3290;47.716;9.070;2023-02-17T09:15:57;98069.78;;;12.31;55.95
6514;BME280;3290;47.716;9.070;2023-02-17T09:18:22;98070.69;;;12.10;55.99
6514;BME280;3290;47.716;9.070;2023-02-17T09:20:48;98073.47;;;12.42;55.91
6514;BME280;3290;47.716;9.070;2023-02-17T09:23:14;98073.25;;;12.44;55.43
6514;BME280;3290;47.716;9.070;2023-02-17T09:25:39;98070.88;;;12.55;55.52
6514;BME280;3290;47.716;9.070;2023-02-17T09:28:05;98069.22;;;12.54;55.01
6514;BME280;3290;47.716;9.070;2023-02-17T09:30:31;98072.50;;;12.63;55.37
6514;BME280;3290;47.716;9.070;2023-02-17T09:32:57;98066.44;;;12.62;55.89
6514;BME280;3290;47.716;9.070;2023-02-17T09:35:23;98074.31;;;12.49;56.14
6514;BME280;3290;47.716;9.070;2023-02-17T09:37:49;98074.75;;;12.66;55.68
6514;BME280;3290;47.716;9.070;2023-02-17T09:40:19;98073.75;;;12.79;55.45
6514;BME280;3290;47.716;9.070;2023-02-17T09:42:46;98071.78;;;13.01;55.52
6514;BME280;3290;47.716;9.070;2023-02-17T09:45:21;98077.06;;;13.26;54.58
6514;BME280;3290;47.716;9.070;2023-02-17T09:47:52;98079.88;;;13.57;55.03
6514;BME280;3290;47.716;9.070;2023-02-17T09:50:25;98086.78;;;13.58;55.32
6514;BME280;3290;47.716;9.070;2023-02-17T09:53:01;98080.53;;;13.33;55.76
6514;BME280;3290;47.716;9.070;2023-02-17T09:55:32;98080.53;;;13.33;55.80
6514;BME280;3290;47.716;9.070;2023-02-17T09:58:02;98076.06;;;13.15;55.81
6514;BME280;3290;47.716;9.070;2023-02-17T10:00:54;98078.69;;;13.15;56.54
6514;BME280;3290;47.716;9.070;2023-02-17T10:03:42;98072.19;;;12.85;57.16
6514;BME280;3290;47.716;9.070;2023-02-17T10:06:22;98073.34;;;12.76;57.09
6514;BME280;3290;47.716;9.070;2023-02-17T10:08:52;98074.28;;;12.56;58.10
6514;BME280;3290;47.716;9.070;2023-02-17T10:11:31;98077.13;;;12.54;58.68
6514;BME280;3290;47.716;9.070;2023-02-17T10:19:47;98076.16;;;12.75;58.07
6514;BME280;3290;47.716;9.070;2023-02-17T10:22:17;98083.09;;;12.82;57.94
6514;BME280;3290;47.716;9.070;2023-02-17T10:24:43;98089.16;;;12.89;57.93
6514;BME280;3290;47.716;9.070;2023-02-17T10:32:26;98098.09;;;13.01;58.10
6514;BME280;3290;47.716;9.070;2023-02-17T10:34:59;98095.69;;;13.06;58.53
6514;BME280;3290;47.716;9.070;2023-02-17T10:37:50;98098.06;;;12.94;58.55
6514;BME280;3290;47.716;9.070;2023-02-17T10:40:23;98093.44;;;13.03;58.22
6514;BME280;3290;47.716;9.070;2023-02-17T10:42:52;98086.38;;;13.35;57.31
6514;BME280;3290;47.716;9.070;2023-02-17T10:45:35;98083.31;;;13.19;57.94
6514;BME280;3290;47.716;9.070;2023-02-17T10:48:31;98084.56;;;13.17;58.05
6514;BME280;3290;47.716;9.070;2023-02-17T10:50:59;98078.28;;;13.30;57.60
6514;BME280;3290;47.716;9.070;2023-02-17T10:53:30;98066.53;;;13.33;58.03
6514;BME280;3290;47.716;9.070;2023-02-17T11:00:57;98075.41;;;13.64;57.92
6514;BME280;3290;47.716;9.070;2023-02-17T11:03:30;98074.56;;;13.83;57.39
6514;BME280;3290;47.716;9.070;2023-02-17T11:05:59;98064.56;;;14.54;55.20
6514;BME280;3290;47.716;9.070;2023-02-17T11:11:05;98065.13;;;14.69;54.31
6514;BME280;3290;47.716;9.070;2023-02-17T11:13:37;98052.63;;;15.19;53.12
6514;BME280;3290;47.716;9.070;2023-02-17T11:16:18;98053.97;;;15.70;51.34
6514;BME280;3290;47.716;9.070;2023-02-17T11:18:47;98050.97;;;15.84;51.39
6514;BME280;3290;47.716;9.070;2023-02-17T11:21:13;98051.41;;;15.81;51.52
6514;BME280;3290;47.716;9.070;2023-02-17T11:23:55;98051.00;;;15.18;52.79
6514;BME280;3290;47.716;9.070;2023-02-17T11:26:24;98046.84;;;15.28;53.50
6514;BME280;3290;47.716;9.070;2023-02-17T11:28:50;98039.19;;;14.90;54.27
6514;BME280;3290;47.716;9.070;2023-02-17T11:31:27;98038.81;;;14.56;55.88
6514;BME280;3290;47.716;9.070;2023-02-17T11:33:53;98039.22;;;14.16;58.32
6514;BME280;3290;47.716;9.070;2023-02-17T11:36:28;98036.81;;;14.08;60.48
6514;BME280;3290;47.716;9.070;2023-02-17T11:38:54;98043.00;;;13.63;61.22
6514;BME280;3290;47.716;9.070;2023-02-17T11:41:20;98041.38;;;13.69;61.23
6514;BME280;3290;47.716;9.070;2023-02-17T11:43:56;98032.06;;;13.54;62.00
6514;BME280;3290;47.716;9.070;2023-02-17T11:46:39;98039.00;;;13.22;63.77
6514;BME280;3290;47.716;9.070;2023-02-17T11:49:41;98039.41;;;13.20;65.10
6514;BME280;3290;47.716;9.070;2023-02-17T12:00:18;98041.97;;;13.64;65.04
6514;BME280;3290;47.716;9.070;2023-02-17T12:06:00;98036.41;;;14.11;64.69
6514;BME280;3290;47.716;9.070;2023-02-17T12:16:50;98036.03;;;13.95;65.89
6514;BME280;3290;47.716;9.070;2023-02-17T12:20:00;98034.00;;;13.97;65.54
6514;BME280;3290;47.716;9.070;2023-02-17T12:22:40;98032.63;;;13.75;66.32
6514;BME280;3290;47.716;9.070;2023-02-17T12:25:27;98026.16;;;13.64;66.85
6514;BME280;3290;47.716;9.070;2023-02-17T12:30:55;98017.31;;;13.53;66.49
6514;BME280;3290;47.716;9.070;2023-02-17T12:36:07;98014.00;;;13.70;65.87
6514;BME280;3290;47.716;9.070;2023-02-17T12:38:47;98009.75;;;13.69;65.23
6514;BME280;3290;47.716;9.070;2023-02-17T12:41:21;98005.28;;;13.76;64.89
6514;BME280;3290;47.716;9.070;2023-02-17T12:43:52;97996.13;;;13.85;64.49
6514;BME280;3290;47.716;9.070;2023-02-17T12:46:26;98000.75;;;13.96;64.40
6514;BME280;3290;47.716;9.070;2023-02-17T12:48:56;97992.50;;;14.29;62.62
6514;BME280;3290;47.716;9.070;2023-02-17T12:51:30;97985.50;;;14.78;61.54
6514;BME280;3290;47.716;9.070;2023-02-17T12:54:29;97988.72;;;14.56;62.24
6514;BME280;3290;47.716;9.070;2023-02-17T12:59:39;97996.28;;;14.46;62.64
6514;BME280;3290;47.716;9.070;2023-02-17T13:04:34;98000.66;;;14.21;64.36
6514;BME280;3290;47.716;9.070;2023-02-17T13:07:07;97992.25;;;13.94;64.95
6514;BME280;3290;47.716;9.070;2023-02-17T13:09:36;98004.38;;;14.01;65.53
6514;BME280;3290;47.716;9.070;2023-02-17T13:12:38;97995.44;;;14.08;65.43
6514;BME280;3290;47.716;9.070;2023-02-17T13:15:29;97997.97;;;14.34;65.05
6514;BME280;3290;47.716;9.070;2023-02-17T13:18:13;97990.53;;;14.18;66.09
6514;BME280;3290;47.716;9.070;2023-02-17T13:20:56;97991.84;;;13.97;66.80
6514;BME280;3290;47.716;9.070;2023-02-17T13:23:31;97988.63;;;13.88;66.94
6514;BME280;3290;47.716;9.070;2023-02-17T13:28:41;97987.06;;;13.74;67.28
6514;BME280;3290;47.716;9.070;2023-02-17T13:33:43;97992.66;;;14.03;66.99
6514;BME280;3290;47.716;9.070;2023-02-17T13:36:32;97988.56;;;14.14;65.50
6514;BME280;3290;47.716;9.070;2023-02-17T13:39:02;97988.16;;;14.10;65.04
6514;BME280;3290;47.716;9.070;2023-02-17T13:41:32;97993.72;;;14.33;63.07
6514;BME280;3290;47.716;9.070;2023-02-17T13:43:58;97990.63;;;14.05;64.12
6514;BME280;3290;47.716;9.070;2023-02-17T13:46:25;97989.09;;;14.22;63.40
6514;BME280;3290;47.716;9.070;2023-02-17T13:49:02;97992.22;;;14.06;65.09
6514;BME280;3290;47.716;9.070;2023-02-17T13:51:30;97998.31;;;13.94;65.56
6514;BME280;3290;47.716;9.070;2023-02-17T13:53:56;97989.56;;;14.13;64.33
6514;BME280;3290;47.716;9.070;2023-02-17T13:56:26;97987.97;;;14.05;64.70
6514;BME280;3290;47.716;9.070;2023-02-17T13:58:52;97984.22;;;13.76;66.27
6514;BME280;3290;47.716;9.070;2023-02-17T14:01:21;97984.16;;;13.89;65.95
6514;BME280;3290;47.716;9.070;2023-02-17T14:03:52;97988.81;;;13.93;66.17
6514;BME280;3290;47.716;9.070;2023-02-17T14:06:26;97989.03;;;13.85;65.78
6514;BME280;3290;47.716;9.070;2023-02-17T14:08:53;97991.81;;;14.09;65.64
6514;BME280;3290;47.716;9.070;2023-02-17T14:11:22;97981.06;;;14.11;65.68
6514;BME280;3290;47.716;9.070;2023-02-17T14:13:50;97989.06;;;14.29;65.42
6514;BME280;3290;47.716;9.070;2023-02-17T14:16:34;97977.19;;;14.13;65.95
6514;BME280;3290;47.716;9.070;2023-02-17T14:19:16;97981.19;;;14.22;65.74
6514;BME280;3290;47.716;9.070;2023-02-17T14:21:45;97979.03;;;14.43;65.36
6514;BME280;3290;47.716;9.070;2023-02-17T14:24:27;97981.38;;;14.27;66.12
6514;BME280;3290;47.716;9.070;2023-02-17T14:27:05;97976.00;;;14.09;67.30
6514;BME280;3290;47.716;9.070;2023-02-17T14:29:43;97984.25;;;14.19;67.73
6514;BME280;3290;47.716;9.070;2023-02-17T14:32:33;97983.44;;;14.19;67.94
6514;BME280;3290;47.716;9.070;2023-02-17T14:35:24;97985.56;;;14.35;67.86
6514;BME280;3290;47.716;9.070;2023-02-17T14:37:50;97979.03;;;14.43;68.65
6514;BME280;3290;47.716;9.070;2023-02-17T14:42:45;97986.47;;;14.22;69.27
6514;BME280;3290;47.716;9.070;2023-02-17T14:47:41;97985.56;;;14.72;69.60
6514;BME280;3290;47.716;9.070;2023-02-17T14:50:08;97983.47;;;14.49;69.37
6514;BME280;3290;47.716;9.070;2023-02-17T14:52:38;97994.22;;;14.48;70.07
6514;BME280;3290;47.716;9.070;2023-02-17T14:55:12;97987.72;;;14.13;71.75
6514;BME280;3290;47.716;9.070;2023-02-17T14:57:39;97979.22;;;14.11;72.18
6514;BME280;3290;47.716;9.070;2023-02-17T15:00:09;97984.94;;;14.39;70.45